sensor_id;sensor_type;location;lat;lon;timestamp;P1;durP1;ratioP1;P2;durP2;ratioP2
6027;SDS011;3042;43.194;27.646;2022-12-29T00:01:37;54.80;;;49.03;;
6027;SDS011;3042;43.194;27.646;2022-12-29T00:04:04;53.57;;;48.70;;
6027;SDS011;3042;43.194;27.646;2022-12-29T00:06:32;53.77;;;49.10;;
6027;SDS011;3042;43.194;27.646;2022-12-29T00:08:59;57.20;;;52.80;;
6027;SDS011;3042;43.194;27.646;2022-12-29T00:11:28;56.33;;;52.13;;
6027;SDS011;3042;43.194;27.646;2022-12-29T00:13:55;53.27;;;49.40;;
6027;SDS011;3042;43.194;27.646;2022-12-29T00:16:40;52.00;;;47.80;;
6027;SDS011;3042;43.194;27.646;2022-12-29T00:19:09;54.30;;;50.23;;
6027;SDS011;3042;43.194;27.646;2022-12-29T00:21:57;50.53;;;45.00;;
6027;SDS011;3042;43.194;27.646;2022-12-29T00:24:42;59.77;;;44.60;;
6027;SDS011;3042;43.194;27.646;2022-12-29T00:27:28;55.33;;;49.50;;
6027;SDS011;3042;43.194;27.646;2022-12-29T00:30:14;53.33;;;46.97;;
6027;SDS011;3042;43.194;27.646;2022-12-29T00:33:00;54.27;;;43.67;;
6027;SDS011;3042;43.194;27.646;2022-12-29T00:35:45;53.10;;;48.17;;
6027;SDS011;3042;43.194;27.646;2022-12-29T00:38:17;58.57;;;53.20;;
6027;SDS011;3042;43.194;27.646;2022-12-29T00:41:02;57.17;;;52.10;;
6027;SDS011;3042;43.194;27.646;2022-12-29T00:43:48;52.97;;;48.53;;
6027;SDS011;3042;43.194;27.646;2022-12-29T00:46:31;53.93;;;49.53;;
6027;SDS011;3042;43.194;27.646;2022-12-29T00:48:59;51.90;;;47.27;;
6027;SDS011;3042;43.194;27.646;2022-12-29T00:51:44;50.27;;;45.73;;
6027;SDS011;3042;43.194;27.646;2022-12-29T00:54:11;50.97;;;45.80;;
6027;SDS011;3042;43.194;27.646;2022-12-29T00:56:39;49.40;;;45.10;;
6027;SDS011;3042;43.194;27.646;2022-12-29T00:59:08;45.80;;;42.30;;
6027;SDS011;3042;43.194;27.646;2022-12-29T01:01:37;52.33;;;47.70;;
6027;SDS011;3042;43.194;27.646;2022-12-29T01:04:04;53.07;;;48.10;;
6027;SDS011;3042;43.194;27.646;2022-12-29T01:06:32;53.37;;;48.00;;
6027;SDS011;3042;43.194;27.646;2022-12-29T01:09:00;67.17;;;49.93;;
6027;SDS011;3042;43.194;27.646;2022-12-29T01:11:44;51.30;;;47.40;;
6027;SDS011;3042;43.194;27.646;2022-12-29T01:14:13;53.70;;;48.63;;
6027;SDS011;3042;43.194;27.646;2022-12-29T01:16:40;52.23;;;47.37;;
6027;SDS011;3042;43.194;27.646;2022-12-29T01:19:07;55.23;;;50.30;;
6027;SDS011;3042;43.194;27.646;2022-12-29T01:21:35;48.40;;;44.60;;
6027;SDS011;3042;43.194;27.646;2022-12-29T01:24:02;70.93;;;47.73;;
6027;SDS011;3042;43.194;27.646;2022-12-29T01:26:29;51.80;;;47.57;;
6027;SDS011;3042;43.194;27.646;2022-12-29T01:28:56;48.30;;;44.60;;
6027;SDS011;3042;43.194;27.646;2022-12-29T01:31:25;51.80;;;46.90;;
6027;SDS011;3042;43.194;27.646;2022-12-29T01:33:52;58.80;;;49.60;;
6027;SDS011;3042;43.194;27.646;2022-12-29T01:36:19;55.00;;;49.20;;
6027;SDS011;3042;43.194;27.646;2022-12-29T01:38:47;52.37;;;48.07;;
6027;SDS011;3042;43.194;27.646;2022-12-29T01:41:14;50.40;;;45.87;;
6027;SDS011;3042;43.194;27.646;2022-12-29T01:43:43;52.73;;;48.40;;
6027;SDS011;3042;43.194;27.646;2022-12-29T01:46:14;52.33;;;47.33;;
6027;SDS011;3042;43.194;27.646;2022-12-29T01:48:50;50.17;;;46.00;;
6027;SDS011;3042;43.194;27.646;2022-12-29T01:51:21;52.70;;;48.20;;
6027;SDS011;3042;43.194;27.646;2022-12-29T01:53:49;54.23;;;49.03;;
6027;SDS011;3042;43.194;27.646;2022-12-29T01:56:18;50.30;;;45.93;;
6027;SDS011;3042;43.194;27.646;2022-12-29T01:58:47;52.17;;;48.07;;
6027;SDS011;3042;43.194;27.646;2022-12-29T02:01:18;50.77;;;46.60;;
6027;SDS011;3042;43.194;27.646;2022-12-29T02:03:46;49.30;;;45.70;;
6027;SDS011;3042;43.194;27.646;2022-12-29T02:06:17;48.50;;;44.90;;
6027;SDS011;3042;43.194;27.646;2022-12-29T02:08:48;68.53;;;49.87;;
6027;SDS011;3042;43.194;27.646;2022-12-29T02:11:18;47.47;;;43.17;;
6027;SDS011;3042;43.194;27.646;2022-12-29T02:13:47;48.00;;;44.40;;
6027;SDS011;3042;43.194;27.646;2022-12-29T02:16:17;52.27;;;48.50;;
6027;SDS011;3042;43.194;27.646;2022-12-29T02:19:01;49.40;;;45.37;;
6027;SDS011;3042;43.194;27.646;2022-12-29T02:21:53;50.20;;;45.40;;
6027;SDS011;3042;43.194;27.646;2022-12-29T02:27:53;58.40;;;52.53;;
6027;SDS011;3042;43.194;27.646;2022-12-29T02:30:52;59.80;;;51.20;;
6027;SDS011;3042;43.194;27.646;2022-12-29T02:33:34;56.37;;;52.10;;
6027;SDS011;3042;43.194;27.646;2022-12-29T02:36:12;55.03;;;51.00;;
6027;SDS011;3042;43.194;27.646;2022-12-29T02:38:50;49.00;;;44.97;;
6027;SDS011;3042;43.194;27.646;2022-12-29T02:41:29;52.10;;;47.27;;
6027;SDS011;3042;43.194;27.646;2022-12-29T02:44:00;50.73;;;46.93;;
6027;SDS011;3042;43.194;27.646;2022-12-29T02:46:35;56.90;;;49.70;;
6027;SDS011;3042;43.194;27.646;2022-12-29T02:49:09;52.10;;;48.27;;
6027;SDS011;3042;43.194;27.646;2022-12-29T02:51:43;54.23;;;49.63;;
6027;SDS011;3042;43.194;27.646;2022-12-29T02:54:17;54.13;;;49.70;;
6027;SDS011;3042;43.194;27.646;2022-12-29T02:57:03;78.47;;;54.10;;
6027;SDS011;3042;43.194;27.646;2022-12-29T02:59:32;58.50;;;52.53;;
6027;SDS011;3042;43.194;27.646;2022-12-29T03:02:10;51.67;;;48.00;;
6027;SDS011;3042;43.194;27.646;2022-12-29T03:04:56;49.23;;;44.87;;
6027;SDS011;3042;43.194;27.646;2022-12-29T03:07:36;48.90;;;44.97;;
6027;SDS011;3042;43.194;27.646;2022-12-29T03:10:14;45.97;;;42.43;;
6027;SDS011;3042;43.194;27.646;2022-12-29T03:12:53;45.17;;;42.37;;
6027;SDS011;3042;43.194;27.646;2022-12-29T03:15:46;54.97;;;51.17;;
6027;SDS011;3042;43.194;27.646;2022-12-29T03:18:31;51.17;;;46.87;;
6027;SDS011;3042;43.194;27.646;2022-12-29T03:21:08;51.23;;;47.87;;
6027;SDS011;3042;43.194;27.646;2022-12-29T03:23:39;48.63;;;45.43;;
6027;SDS011;3042;43.194;27.646;2022-12-29T03:26:08;52.47;;;48.97;;
6027;SDS011;3042;43.194;27.646;2022-12-29T03:28:39;51.20;;;47.63;;
6027;SDS011;3042;43.194;27.646;2022-12-29T03:31:11;51.00;;;46.10;;
6027;SDS011;3042;43.194;27.646;2022-12-29T03:33:42;47.80;;;44.60;;
6027;SDS011;3042;43.194;27.646;2022-12-29T03:36:12;46.90;;;43.70;;
6027;SDS011;3042;43.194;27.646;2022-12-29T03:38:45;52.13;;;47.80;;
6027;SDS011;3042;43.194;27.646;2022-12-29T03:41:15;47.90;;;44.30;;
6027;SDS011;3042;43.194;27.646;2022-12-29T03:43:45;47.43;;;44.13;;
6027;SDS011;3042;43.194;27.646;2022-12-29T03:46:13;46.07;;;42.97;;
6027;SDS011;3042;43.194;27.646;2022-12-29T03:48:41;49.70;;;46.47;;
6027;SDS011;3042;43.194;27.646;2022-12-29T03:51:09;45.93;;;42.53;;
6027;SDS011;3042;43.194;27.646;2022-12-29T03:53:36;47.03;;;43.53;;
6027;SDS011;3042;43.194;27.646;2022-12-29T03:56:03;48.97;;;45.67;;
6027;SDS011;3042;43.194;27.646;2022-12-29T03:58:30;50.63;;;46.10;;
6027;SDS011;3042;43.194;27.646;2022-12-29T04:00:58;46.53;;;43.07;;
6027;SDS011;3042;43.194;27.646;2022-12-29T04:03:25;50.50;;;47.00;;
6027;SDS011;3042;43.194;27.646;2022-12-29T04:05:53;43.20;;;40.30;;
6027;SDS011;3042;43.194;27.646;2022-12-29T04:08:21;45.17;;;42.13;;
6027;SDS011;3042;43.194;27.646;2022-12-29T04:10:48;43.23;;;40.27;;
6027;SDS011;3042;43.194;27.646;2022-12-29T04:13:15;48.27;;;44.53;;
6027;SDS011;3042;43.194;27.646;2022-12-29T04:15:43;49.50;;;45.97;;
6027;SDS011;3042;43.194;27.646;2022-12-29T04:18:10;47.80;;;44.30;;
6027;SDS011;3042;43.194;27.646;2022-12-29T04:20:37;51.97;;;48.27;;
6027;SDS011;3042;43.194;27.646;2022-12-29T04:23:23;49.10;;;45.60;;
6027;SDS011;3042;43.194;27.646;2022-12-29T04:25:51;50.77;;;46.97;;
6027;SDS011;3042;43.194;27.646;2022-12-29T04:28:18;53.60;;;49.37;;
6027;SDS011;3042;43.194;27.646;2022-12-29T04:30:45;48.00;;;44.37;;
6027;SDS011;3042;43.194;27.646;2022-12-29T04:33:13;49.50;;;45.83;;
6027;SDS011;3042;43.194;27.646;2022-12-29T04:35:41;54.08;;;50.33;;
6027;SDS011;3042;43.194;27.646;2022-12-29T04:38:09;52.00;;;48.27;;
6027;SDS011;3042;43.194;27.646;2022-12-29T04:40:39;50.33;;;46.67;;
6027;SDS011;3042;43.194;27.646;2022-12-29T04:43:07;52.60;;;48.70;;
6027;SDS011;3042;43.194;27.646;2022-12-29T04:45:35;52.43;;;49.03;;
6027;SDS011;3042;43.194;27.646;2022-12-29T04:48:02;49.50;;;46.10;;
6027;SDS011;3042;43.194;27.646;2022-12-29T04:50:30;50.07;;;46.53;;
6027;SDS011;3042;43.194;27.646;2022-12-29T04:52:57;50.70;;;47.03;;
6027;SDS011;3042;43.194;27.646;2022-12-29T04:55:24;53.63;;;49.23;;
6027;SDS011;3042;43.194;27.646;2022-12-29T04:57:53;50.43;;;46.10;;
6027;SDS011;3042;43.194;27.646;2022-12-29T05:00:20;52.27;;;48.40;;
6027;SDS011;3042;43.194;27.646;2022-12-29T05:02:47;55.07;;;50.27;;
6027;SDS011;3042;43.194;27.646;2022-12-29T05:05:15;49.40;;;44.80;;
6027;SDS011;3042;43.194;27.646;2022-12-29T05:07:42;52.20;;;46.60;;
6027;SDS011;3042;43.194;27.646;2022-12-29T05:10:10;54.37;;;50.20;;
6027;SDS011;3042;43.194;27.646;2022-12-29T05:12:38;49.27;;;45.77;;
6027;SDS011;3042;43.194;27.646;2022-12-29T05:15:07;51.93;;;47.83;;
6027;SDS011;3042;43.194;27.646;2022-12-29T05:20:39;46.17;;;41.90;;
6027;SDS011;3042;43.194;27.646;2022-12-29T05:23:07;48.47;;;44.23;;
6027;SDS011;3042;43.194;27.646;2022-12-29T05:25:34;49.40;;;45.30;;
6027;SDS011;3042;43.194;27.646;2022-12-29T05:28:01;53.50;;;49.37;;
6027;SDS011;3042;43.194;27.646;2022-12-29T05:30:30;52.67;;;47.83;;
6027;SDS011;3042;43.194;27.646;2022-12-29T05:32:57;49.43;;;45.83;;
6027;SDS011;3042;43.194;27.646;2022-12-29T05:35:24;53.50;;;49.43;;
6027;SDS011;3042;43.194;27.646;2022-12-29T05:37:51;47.57;;;44.03;;
6027;SDS011;3042;43.194;27.646;2022-12-29T05:40:19;51.83;;;48.20;;
6027;SDS011;3042;43.194;27.646;2022-12-29T05:42:46;56.23;;;50.47;;
6027;SDS011;3042;43.194;27.646;2022-12-29T05:45:13;53.30;;;48.60;;
6027;SDS011;3042;43.194;27.646;2022-12-29T05:47:42;52.90;;;48.57;;
6027;SDS011;3042;43.194;27.646;2022-12-29T05:50:09;49.90;;;45.60;;
6027;SDS011;3042;43.194;27.646;2022-12-29T05:52:42;63.20;;;58.40;;
6027;SDS011;3042;43.194;27.646;2022-12-29T05:55:09;45.00;;;40.20;;
6027;SDS011;3042;43.194;27.646;2022-12-29T05:57:37;50.37;;;46.50;;
6027;SDS011;3042;43.194;27.646;2022-12-29T06:00:05;48.63;;;44.40;;
6027;SDS011;3042;43.194;27.646;2022-12-29T06:02:33;55.97;;;44.13;;
6027;SDS011;3042;43.194;27.646;2022-12-29T06:05:02;65.97;;;45.67;;
6027;SDS011;3042;43.194;27.646;2022-12-29T06:07:30;53.00;;;42.00;;
6027;SDS011;3042;43.194;27.646;2022-12-29T06:09:57;45.67;;;41.20;;
6027;SDS011;3042;43.194;27.646;2022-12-29T06:12:24;51.23;;;46.17;;
6027;SDS011;3042;43.194;27.646;2022-12-29T06:14:52;51.83;;;47.23;;
6027;SDS011;3042;43.194;27.646;2022-12-29T06:17:19;79.30;;;48.23;;
6027;SDS011;3042;43.194;27.646;2022-12-29T06:19:46;83.67;;;76.80;;
6027;SDS011;3042;43.194;27.646;2022-12-29T06:22:15;55.40;;;50.97;;
6027;SDS011;3042;43.194;27.646;2022-12-29T06:24:42;64.27;;;49.17;;
6027;SDS011;3042;43.194;27.646;2022-12-29T06:27:09;49.27;;;44.53;;
6027;SDS011;3042;43.194;27.646;2022-12-29T06:29:37;54.37;;;48.77;;
6027;SDS011;3042;43.194;27.646;2022-12-29T06:32:05;47.93;;;43.83;;
6027;SDS011;3042;43.194;27.646;2022-12-29T06:34:33;44.90;;;41.27;;
6027;SDS011;3042;43.194;27.646;2022-12-29T06:37:00;46.30;;;42.10;;
6027;SDS011;3042;43.194;27.646;2022-12-29T06:39:29;57.63;;;44.57;;
6027;SDS011;3042;43.194;27.646;2022-12-29T06:41:57;42.27;;;38.80;;
6027;SDS011;3042;43.194;27.646;2022-12-29T06:44:24;43.00;;;39.60;;
6027;SDS011;3042;43.194;27.646;2022-12-29T06:46:51;45.87;;;42.47;;
6027;SDS011;3042;43.194;27.646;2022-12-29T06:49:18;44.67;;;40.40;;
6027;SDS011;3042;43.194;27.646;2022-12-29T06:51:46;42.00;;;38.80;;
6027;SDS011;3042;43.194;27.646;2022-12-29T06:54:13;42.40;;;38.20;;
6027;SDS011;3042;43.194;27.646;2022-12-29T06:56:42;46.23;;;42.33;;
6027;SDS011;3042;43.194;27.646;2022-12-29T06:59:09;43.20;;;39.27;;
6027;SDS011;3042;43.194;27.646;2022-12-29T07:01:37;43.50;;;39.53;;
6027;SDS011;3042;43.194;27.646;2022-12-29T07:04:05;49.03;;;38.67;;
6027;SDS011;3042;43.194;27.646;2022-12-29T07:06:32;44.40;;;40.30;;
6027;SDS011;3042;43.194;27.646;2022-12-29T07:08:59;42.13;;;38.70;;
6027;SDS011;3042;43.194;27.646;2022-12-29T07:11:26;46.00;;;38.07;;
6027;SDS011;3042;43.194;27.646;2022-12-29T07:13:55;54.13;;;40.43;;
6027;SDS011;3042;43.194;27.646;2022-12-29T07:16:23;43.97;;;39.90;;
6027;SDS011;3042;43.194;27.646;2022-12-29T07:18:50;47.97;;;40.40;;
6027;SDS011;3042;43.194;27.646;2022-12-29T07:21:18;47.37;;;39.60;;
6027;SDS011;3042;43.194;27.646;2022-12-29T07:23:45;46.97;;;43.17;;
6027;SDS011;3042;43.194;27.646;2022-12-29T07:26:13;42.97;;;39.40;;
6027;SDS011;3042;43.194;27.646;2022-12-29T07:28:43;66.53;;;41.23;;
6027;SDS011;3042;43.194;27.646;2022-12-29T07:31:14;40.87;;;37.17;;
6027;SDS011;3042;43.194;27.646;2022-12-29T07:33:43;62.93;;;43.53;;
6027;SDS011;3042;43.194;27.646;2022-12-29T07:36:10;43.77;;;39.27;;
6027;SDS011;3042;43.194;27.646;2022-12-29T07:38:39;43.10;;;38.80;;
6027;SDS011;3042;43.194;27.646;2022-12-29T07:41:06;46.73;;;40.63;;
6027;SDS011;3042;43.194;27.646;2022-12-29T07:43:33;44.83;;;40.57;;
6027;SDS011;3042;43.194;27.646;2022-12-29T07:46:01;65.77;;;49.60;;
6027;SDS011;3042;43.194;27.646;2022-12-29T07:48:29;51.23;;;43.10;;
6027;SDS011;3042;43.194;27.646;2022-12-29T07:50:58;77.20;;;42.63;;
6027;SDS011;3042;43.194;27.646;2022-12-29T07:53:25;49.13;;;44.23;;
6027;SDS011;3042;43.194;27.646;2022-12-29T07:55:53;52.67;;;42.90;;
6027;SDS011;3042;43.194;27.646;2022-12-29T07:58:20;75.07;;;49.45;;
6027;SDS011;3042;43.194;27.646;2022-12-29T08:00:47;73.63;;;45.10;;
6027;SDS011;3042;43.194;27.646;2022-12-29T08:03:19;61.07;;;46.60;;
6027;SDS011;3042;43.194;27.646;2022-12-29T08:05:47;69.90;;;47.90;;
6027;SDS011;3042;43.194;27.646;2022-12-29T08:08:14;64.43;;;48.70;;
6027;SDS011;3042;43.194;27.646;2022-12-29T08:10:42;52.07;;;46.67;;
6027;SDS011;3042;43.194;27.646;2022-12-29T08:13:09;81.57;;;47.47;;
6027;SDS011;3042;43.194;27.646;2022-12-29T08:15:37;65.83;;;52.03;;
6027;SDS011;3042;43.194;27.646;2022-12-29T08:18:05;80.00;;;52.70;;
6027;SDS011;3042;43.194;27.646;2022-12-29T08:20:32;77.67;;;56.27;;
6027;SDS011;3042;43.194;27.646;2022-12-29T08:23:01;60.43;;;50.40;;
6027;SDS011;3042;43.194;27.646;2022-12-29T08:25:28;86.87;;;50.97;;
6027;SDS011;3042;43.194;27.646;2022-12-29T08:27:55;99.20;;;56.37;;
6027;SDS011;3042;43.194;27.646;2022-12-29T08:30:22;79.93;;;56.50;;
6027;SDS011;3042;43.194;27.646;2022-12-29T08:32:49;84.90;;;61.80;;
6027;SDS011;3042;43.194;27.646;2022-12-29T08:35:17;75.93;;;60.97;;
6027;SDS011;3042;43.194;27.646;2022-12-29T08:37:44;74.13;;;56.50;;
6027;SDS011;3042;43.194;27.646;2022-12-29T08:40:13;95.00;;;63.70;;
6027;SDS011;3042;43.194;27.646;2022-12-29T08:42:40;91.93;;;61.73;;
6027;SDS011;3042;43.194;27.646;2022-12-29T08:45:08;99.63;;;64.00;;
6027;SDS011;3042;43.194;27.646;2022-12-29T08:47:35;81.80;;;65.97;;
6027;SDS011;3042;43.194;27.646;2022-12-29T08:50:03;102.10;;;71.97;;
6027;SDS011;3042;43.194;27.646;2022-12-29T08:52:30;120.57;;;79.17;;
6027;SDS011;3042;43.194;27.646;2022-12-29T08:54:58;105.47;;;76.00;;
6027;SDS011;3042;43.194;27.646;2022-12-29T08:57:26;151.43;;;84.10;;
6027;SDS011;3042;43.194;27.646;2022-12-29T08:59:54;112.73;;;82.53;;
6027;SDS011;3042;43.194;27.646;2022-12-29T09:02:21;104.23;;;81.93;;
6027;SDS011;3042;43.194;27.646;2022-12-29T09:04:48;89.87;;;70.07;;
6027;SDS011;3042;43.194;27.646;2022-12-29T09:07:15;122.63;;;73.10;;
6027;SDS011;3042;43.194;27.646;2022-12-29T09:09:43;96.27;;;75.77;;
6027;SDS011;3042;43.194;27.646;2022-12-29T09:12:10;97.53;;;79.43;;
6027;SDS011;3042;43.194;27.646;2022-12-29T09:14:38;129.20;;;81.00;;
6027;SDS011;3042;43.194;27.646;2022-12-29T09:17:07;125.13;;;81.13;;
6027;SDS011;3042;43.194;27.646;2022-12-29T09:19:53;99.00;;;72.87;;
6027;SDS011;3042;43.194;27.646;2022-12-29T09:22:20;99.33;;;72.83;;
6027;SDS011;3042;43.194;27.646;2022-12-29T09:24:47;118.97;;;72.93;;
6027;SDS011;3042;43.194;27.646;2022-12-29T09:27:14;102.70;;;62.50;;
6027;SDS011;3042;43.194;27.646;2022-12-29T09:29:43;138.00;;;74.33;;
6027;SDS011;3042;43.194;27.646;2022-12-29T09:32:10;83.37;;;64.83;;
6027;SDS011;3042;43.194;27.646;2022-12-29T09:34:37;89.60;;;65.33;;
6027;SDS011;3042;43.194;27.646;2022-12-29T09:37:04;78.73;;;61.13;;
6027;SDS011;3042;43.194;27.646;2022-12-29T09:39:32;74.50;;;64.80;;
6027;SDS011;3042;43.194;27.646;2022-12-29T09:42:00;81.47;;;67.17;;
6027;SDS011;3042;43.194;27.646;2022-12-29T09:44:38;84.90;;;64.13;;
6027;SDS011;3042;43.194;27.646;2022-12-29T09:47:16;87.87;;;62.80;;
6027;SDS011;3042;43.194;27.646;2022-12-29T09:49:47;81.60;;;60.87;;
6027;SDS011;3042;43.194;27.646;2022-12-29T09:52:20;76.77;;;57.30;;
6027;SDS011;3042;43.194;27.646;2022-12-29T09:54:53;117.53;;;60.67;;
6027;SDS011;3042;43.194;27.646;2022-12-29T09:57:24;71.90;;;55.53;;
6027;SDS011;3042;43.194;27.646;2022-12-29T09:59:57;84.50;;;53.90;;
6027;SDS011;3042;43.194;27.646;2022-12-29T10:02:32;55.73;;;49.80;;
6027;SDS011;3042;43.194;27.646;2022-12-29T10:05:12;50.93;;;45.93;;
6027;SDS011;3042;43.194;27.646;2022-12-29T10:07:45;57.07;;;51.07;;
6027;SDS011;3042;43.194;27.646;2022-12-29T10:10:23;60.87;;;51.60;;
6027;SDS011;3042;43.194;27.646;2022-12-29T10:13:00;55.23;;;48.03;;
6027;SDS011;3042;43.194;27.646;2022-12-29T10:15:40;46.67;;;41.90;;
6027;SDS011;3042;43.194;27.646;2022-12-29T10:21:27;43.30;;;39.53;;
6027;SDS011;3042;43.194;27.646;2022-12-29T10:24:04;46.17;;;41.60;;
6027;SDS011;3042;43.194;27.646;2022-12-29T10:26:37;51.27;;;46.90;;
6027;SDS011;3042;43.194;27.646;2022-12-29T10:29:11;43.00;;;38.50;;
6027;SDS011;3042;43.194;27.646;2022-12-29T10:31:44;40.10;;;36.70;;
6027;SDS011;3042;43.194;27.646;2022-12-29T10:34:16;37.23;;;34.33;;
6027;SDS011;3042;43.194;27.646;2022-12-29T10:36:48;38.90;;;35.60;;
6027;SDS011;3042;43.194;27.646;2022-12-29T10:39:19;35.87;;;33.10;;
6027;SDS011;3042;43.194;27.646;2022-12-29T10:41:53;36.43;;;33.23;;
6027;SDS011;3042;43.194;27.646;2022-12-29T10:44:24;32.73;;;30.20;;
6027;SDS011;3042;43.194;27.646;2022-12-29T10:46:59;39.23;;;35.00;;
6027;SDS011;3042;43.194;27.646;2022-12-29T10:49:30;37.00;;;34.00;;
6027;SDS011;3042;43.194;27.646;2022-12-29T10:52:00;41.20;;;36.60;;
6027;SDS011;3042;43.194;27.646;2022-12-29T10:54:31;39.47;;;36.27;;
6027;SDS011;3042;43.194;27.646;2022-12-29T10:57:03;40.77;;;37.00;;
6027;SDS011;3042;43.194;27.646;2022-12-29T10:59:35;36.40;;;33.30;;
6027;SDS011;3042;43.194;27.646;2022-12-29T11:02:12;57.63;;;38.00;;
6027;SDS011;3042;43.194;27.646;2022-12-29T11:04:53;46.50;;;39.40;;
6027;SDS011;3042;43.194;27.646;2022-12-29T11:07:25;38.33;;;34.27;;
6027;SDS011;3042;43.194;27.646;2022-12-29T11:09:53;44.73;;;33.43;;
6027;SDS011;3042;43.194;27.646;2022-12-29T11:12:21;37.73;;;32.50;;
6027;SDS011;3042;43.194;27.646;2022-12-29T11:15:12;34.77;;;32.10;;
6027;SDS011;3042;43.194;27.646;2022-12-29T11:17:46;38.73;;;35.50;;
6027;SDS011;3042;43.194;27.646;2022-12-29T11:20:27;32.80;;;29.67;;
6027;SDS011;3042;43.194;27.646;2022-12-29T11:22:57;41.27;;;33.07;;
6027;SDS011;3042;43.194;27.646;2022-12-29T11:25:25;32.30;;;29.17;;
6027;SDS011;3042;43.194;27.646;2022-12-29T11:27:56;33.30;;;30.73;;
6027;SDS011;3042;43.194;27.646;2022-12-29T11:30:26;36.77;;;32.77;;
6027;SDS011;3042;43.194;27.646;2022-12-29T11:32:56;43.30;;;32.10;;
6027;SDS011;3042;43.194;27.646;2022-12-29T11:35:32;33.10;;;29.90;;
6027;SDS011;3042;43.194;27.646;2022-12-29T11:38:01;47.20;;;35.93;;
6027;SDS011;3042;43.194;27.646;2022-12-29T11:40:30;67.77;;;34.93;;
6027;SDS011;3042;43.194;27.646;2022-12-29T11:43:00;65.23;;;34.67;;
6027;SDS011;3042;43.194;27.646;2022-12-29T11:45:29;40.23;;;34.33;;
6027;SDS011;3042;43.194;27.646;2022-12-29T11:48:04;32.60;;;28.03;;
6027;SDS011;3042;43.194;27.646;2022-12-29T11:50:35;53.43;;;47.93;;
6027;SDS011;3042;43.194;27.646;2022-12-29T11:53:07;40.40;;;34.40;;
6027;SDS011;3042;43.194;27.646;2022-12-29T11:55:49;69.27;;;32.67;;
6027;SDS011;3042;43.194;27.646;2022-12-29T11:58:19;46.47;;;35.07;;
6027;SDS011;3042;43.194;27.646;2022-12-29T12:00:46;68.03;;;33.73;;
6027;SDS011;3042;43.194;27.646;2022-12-29T12:03:17;70.77;;;37.60;;
6027;SDS011;3042;43.194;27.646;2022-12-29T12:05:48;47.03;;;32.07;;
6027;SDS011;3042;43.194;27.646;2022-12-29T12:08:21;69.77;;;37.60;;
6027;SDS011;3042;43.194;27.646;2022-12-29T12:10:57;44.23;;;34.30;;
6027;SDS011;3042;43.194;27.646;2022-12-29T12:13:31;30.00;;;27.50;;
6027;SDS011;3042;43.194;27.646;2022-12-29T12:16:04;35.40;;;31.87;;
6027;SDS011;3042;43.194;27.646;2022-12-29T12:18:39;44.87;;;28.83;;
6027;SDS011;3042;43.194;27.646;2022-12-29T12:21:15;29.50;;;27.10;;
6027;SDS011;3042;43.194;27.646;2022-12-29T12:23:58;125.87;;;38.53;;
6027;SDS011;3042;43.194;27.646;2022-12-29T12:26:46;31.63;;;28.20;;
6027;SDS011;3042;43.194;27.646;2022-12-29T12:29:24;33.37;;;30.50;;
6027;SDS011;3042;43.194;27.646;2022-12-29T12:31:57;77.13;;;33.77;;
6027;SDS011;3042;43.194;27.646;2022-12-29T12:34:33;118.97;;;35.03;;
6027;SDS011;3042;43.194;27.646;2022-12-29T12:37:10;61.97;;;30.23;;
6027;SDS011;3042;43.194;27.646;2022-12-29T12:39:59;54.30;;;29.90;;
6027;SDS011;3042;43.194;27.646;2022-12-29T12:42:40;42.33;;;29.57;;
6027;SDS011;3042;43.194;27.646;2022-12-29T12:45:29;30.90;;;27.30;;
6027;SDS011;3042;43.194;27.646;2022-12-29T12:48:05;59.43;;;29.63;;
6027;SDS011;3042;43.194;27.646;2022-12-29T12:50:48;52.53;;;26.73;;
6027;SDS011;3042;43.194;27.646;2022-12-29T12:53:32;54.13;;;30.07;;
6027;SDS011;3042;43.194;27.646;2022-12-29T12:56:15;52.17;;;30.70;;
6027;SDS011;3042;43.194;27.646;2022-12-29T12:59:02;101.27;;;32.90;;
6027;SDS011;3042;43.194;27.646;2022-12-29T13:01:38;30.43;;;28.03;;
6027;SDS011;3042;43.194;27.646;2022-12-29T13:07:23;42.53;;;29.20;;
6027;SDS011;3042;43.194;27.646;2022-12-29T13:10:03;47.47;;;30.30;;
6027;SDS011;3042;43.194;27.646;2022-12-29T13:12:48;30.70;;;27.83;;
6027;SDS011;3042;43.194;27.646;2022-12-29T13:15:22;36.57;;;32.70;;
6027;SDS011;3042;43.194;27.646;2022-12-29T13:18:07;27.97;;;25.70;;
6027;SDS011;3042;43.194;27.646;2022-12-29T13:20:44;73.30;;;30.53;;
6027;SDS011;3042;43.194;27.646;2022-12-29T13:23:23;96.03;;;32.47;;
6027;SDS011;3042;43.194;27.646;2022-12-29T13:25:58;27.33;;;24.93;;
6027;SDS011;3042;43.194;27.646;2022-12-29T13:28:36;58.73;;;31.30;;
6027;SDS011;3042;43.194;27.646;2022-12-29T13:31:12;30.03;;;27.07;;
6027;SDS011;3042;43.194;27.646;2022-12-29T13:33:45;33.53;;;30.10;;
6027;SDS011;3042;43.194;27.646;2022-12-29T13:36:22;48.53;;;29.70;;
6027;SDS011;3042;43.194;27.646;2022-12-29T13:38:58;38.07;;;30.20;;
6027;SDS011;3042;43.194;27.646;2022-12-29T13:41:30;34.60;;;28.97;;
6027;SDS011;3042;43.194;27.646;2022-12-29T13:44:03;63.37;;;33.50;;
6027;SDS011;3042;43.194;27.646;2022-12-29T13:46:33;69.67;;;33.00;;
6027;SDS011;3042;43.194;27.646;2022-12-29T13:49:05;69.50;;;32.43;;
6027;SDS011;3042;43.194;27.646;2022-12-29T13:51:37;60.27;;;31.80;;
6027;SDS011;3042;43.194;27.646;2022-12-29T13:54:17;108.83;;;34.53;;
6027;SDS011;3042;43.194;27.646;2022-12-29T13:56:52;46.03;;;36.60;;
6027;SDS011;3042;43.194;27.646;2022-12-29T13:59:33;35.77;;;29.33;;
6027;SDS011;3042;43.194;27.646;2022-12-29T14:02:09;56.80;;;31.07;;
6027;SDS011;3042;43.194;27.646;2022-12-29T14:04:55;81.30;;;35.30;;
6027;SDS011;3042;43.194;27.646;2022-12-29T14:07:24;97.07;;;37.17;;
6027;SDS011;3042;43.194;27.646;2022-12-29T14:09:54;91.67;;;36.20;;
6027;SDS011;3042;43.194;27.646;2022-12-29T14:12:31;196.73;;;44.33;;
6027;SDS011;3042;43.194;27.646;2022-12-29T14:15:03;153.83;;;40.60;;
6027;SDS011;3042;43.194;27.646;2022-12-29T14:17:33;179.37;;;41.97;;
6027;SDS011;3042;43.194;27.646;2022-12-29T14:20:00;115.33;;;39.53;;
6027;SDS011;3042;43.194;27.646;2022-12-29T14:22:29;156.40;;;45.20;;
6027;SDS011;3042;43.194;27.646;2022-12-29T14:24:58;129.30;;;41.03;;
6027;SDS011;3042;43.194;27.646;2022-12-29T14:30:48;92.47;;;41.47;;
6027;SDS011;3042;43.194;27.646;2022-12-29T14:33:16;154.23;;;44.63;;
6027;SDS011;3042;43.194;27.646;2022-12-29T14:35:44;133.77;;;44.93;;
6027;SDS011;3042;43.194;27.646;2022-12-29T14:38:29;138.70;;;44.90;;
6027;SDS011;3042;43.194;27.646;2022-12-29T14:43:54;143.83;;;43.73;;
6027;SDS011;3042;43.194;27.646;2022-12-29T14:46:24;144.67;;;43.30;;
6027;SDS011;3042;43.194;27.646;2022-12-29T14:49:08;188.73;;;50.80;;
6027;SDS011;3042;43.194;27.646;2022-12-29T14:51:43;91.43;;;40.60;;
6027;SDS011;3042;43.194;27.646;2022-12-29T14:57:11;46.00;;;39.57;;
6027;SDS011;3042;43.194;27.646;2022-12-29T14:59:46;47.70;;;41.60;;
6027;SDS011;3042;43.194;27.646;2022-12-29T15:02:16;64.20;;;41.40;;
6027;SDS011;3042;43.194;27.646;2022-12-29T15:04:48;48.63;;;43.93;;
6027;SDS011;3042;43.194;27.646;2022-12-29T15:07:15;53.47;;;48.17;;
6027;SDS011;3042;43.194;27.646;2022-12-29T15:09:46;55.53;;;48.93;;
6027;SDS011;3042;43.194;27.646;2022-12-29T15:12:22;87.30;;;52.17;;
6027;SDS011;3042;43.194;27.646;2022-12-29T15:14:58;52.50;;;47.30;;
6027;SDS011;3042;43.194;27.646;2022-12-29T15:17:27;68.67;;;47.40;;
6027;SDS011;3042;43.194;27.646;2022-12-29T15:19:56;97.17;;;47.07;;
6027;SDS011;3042;43.194;27.646;2022-12-29T15:22:25;90.10;;;48.90;;